createdAt,value
2019-02-23T00:01:57.205Z,101935.66
2019-02-23T00:07:00.649Z,101932.06
2019-02-23T00:12:04.732Z,101936.37
2019-02-23T00:17:08.558Z,101945.45
2019-02-23T00:22:11.857Z,101945.33
2019-02-23T00:27:14.934Z,101946.06
2019-02-23T00:32:18.022Z,101950.88
2019-02-23T00:37:21.019Z,101950.08
2019-02-23T00:42:24.084Z,101953.34
2019-02-23T00:47:27.165Z,101953.69
2019-02-23T00:52:30.178Z,101958.28
2019-02-23T00:57:33.156Z,101943.98
2019-02-23T01:02:36.424Z,101951.72
2019-02-23T01:07:39.499Z,101955.27
2019-02-23T01:12:42.598Z,101959.88
2019-02-23T01:17:45.743Z,101959.27
2019-02-23T01:22:48.856Z,101963.15
2019-02-23T01:27:51.990Z,101971.43
2019-02-23T01:32:55.077Z,101973.77
2019-02-23T01:37:58.157Z,101981.34
2019-02-23T01:43:01.109Z,101979.95
2019-02-23T01:48:04.094Z,101978.28
2019-02-23T01:53:07.176Z,101983.50
2019-02-23T01:58:10.342Z,101980.94
2019-02-23T02:03:13.321Z,101983.45
2019-02-23T02:08:16.414Z,101979.66
2019-02-23T02:13:19.636Z,101970.17
2019-02-23T02:18:22.713Z,101971.25
2019-02-23T02:23:25.694Z,101965.25
2019-02-23T02:28:28.829Z,101971.47
2019-02-23T02:33:31.919Z,101960.47
2019-02-23T02:38:34.913Z,101965.19
2019-02-23T02:43:37.869Z,101960.80
2019-02-23T02:48:41.183Z,101965.37
2019-02-23T02:53:44.158Z,101970.92
2019-02-23T02:58:47.397Z,101971.95
2019-02-23T03:03:50.367Z,101979.38
2019-02-23T03:08:53.434Z,101985.56
2019-02-23T03:13:57.602Z,101992.30
2019-02-23T03:19:00.796Z,102002.64
2019-02-23T03:24:03.897Z,102004.64
2019-02-23T03:29:07.065Z,101994.99
2019-02-23T03:34:10.155Z,101991.72
2019-02-23T03:39:13.106Z,101984.47
2019-02-23T03:44:16.059Z,101984.31
2019-02-23T03:49:19.311Z,101978.14
2019-02-23T03:54:22.376Z,101984.14
2019-02-23T03:59:25.442Z,101994.02
2019-02-23T04:04:28.480Z,101993.35
2019-02-23T04:09:31.477Z,101989.19
2019-02-23T04:14:34.823Z,101979.66
2019-02-23T04:19:37.791Z,101969.23
2019-02-23T04:24:41.132Z,101964.60
2019-02-23T04:29:46.942Z,101976.34
2019-02-23T04:34:49.176Z,101970.30
2019-02-23T04:39:52.266Z,101979.81
2019-02-23T04:44:55.188Z,101968.08
2019-02-23T04:49:58.170Z,101974.49
2019-02-23T04:55:01.172Z,101976.86
2019-02-23T05:00:05.311Z,101978.30
2019-02-23T05:05:09.527Z,101984.82
2019-02-23T05:10:12.847Z,101975.38
2019-02-23T05:15:16.106Z,101982.98
2019-02-23T05:20:19.565Z,101989.59
2019-02-23T05:25:22.645Z,101988.47
2019-02-23T05:30:25.695Z,102003.20
2019-02-23T05:35:28.842Z,102008.86
2019-02-23T05:40:31.947Z,102021.30
2019-02-23T05:45:35.118Z,102020.42
2019-02-23T05:50:38.308Z,102029.86
2019-02-23T05:55:41.370Z,102024.77
2019-02-23T06:00:44.463Z,102027.77
2019-02-23T06:05:47.419Z,102024.98
2019-02-23T06:10:50.632Z,102044.59
2019-02-23T06:15:53.587Z,102046.97
2019-02-23T06:20:56.799Z,102048.11
2019-02-23T06:25:59.764Z,102052.37
2019-02-23T06:31:02.908Z,102052.19
2019-02-23T06:36:05.868Z,102045.22
2019-02-23T06:41:08.885Z,102054.19
2019-02-23T06:46:11.900Z,102068.97
2019-02-23T06:51:14.897Z,102061.92
2019-02-23T06:56:18.015Z,102068.67
2019-02-23T07:01:21.137Z,102071.23
2019-02-23T07:06:24.291Z,102072.88
2019-02-23T07:11:27.509Z,102074.02
2019-02-23T07:16:30.793Z,102082.27
2019-02-23T07:21:33.811Z,102089.48
2019-02-23T07:26:37.129Z,102105.25
2019-02-23T07:31:40.379Z,102108.66
2019-02-23T07:36:43.351Z,102125.05
2019-02-23T07:41:46.509Z,102117.28
2019-02-23T07:46:49.536Z,102129.27
2019-02-23T07:51:52.518Z,102131.12
2019-02-23T07:56:55.470Z,102155.98
2019-02-23T08:01:58.485Z,102165.33
2019-02-23T08:07:01.659Z,102169.30
2019-02-23T08:12:04.737Z,102179.29
2019-02-23T08:17:07.936Z,102190.00
2019-02-23T08:22:10.942Z,102208.66
2019-02-23T08:27:13.988Z,102201.44
2019-02-23T08:32:17.490Z,102188.01
2019-02-23T08:37:20.457Z,102168.45
2019-02-23T08:42:23.526Z,102165.52
2019-02-23T08:47:26.466Z,102164.94
2019-02-23T08:52:29.494Z,102171.13
2019-02-23T08:57:32.810Z,102176.27
2019-02-23T09:02:35.777Z,102177.34
2019-02-23T09:07:38.968Z,102184.69
2019-02-23T09:12:41.941Z,102198.65
2019-02-23T09:17:44.966Z,102196.47
2019-02-23T09:22:48.094Z,102203.57
2019-02-23T09:27:51.180Z,102217.56
2019-02-23T09:32:54.288Z,102236.89
2019-02-23T09:37:57.657Z,102225.02
2019-02-23T09:43:00.749Z,102206.02
2019-02-23T09:48:03.684Z,102221.39
2019-02-23T09:53:11.205Z,102222.19
2019-02-23T09:58:11.918Z,102214.97
2019-02-23T10:03:14.942Z,102205.01
2019-02-23T10:08:18.088Z,102186.23
2019-02-23T10:13:21.154Z,102190.63
2019-02-23T10:18:24.187Z,102172.90
2019-02-23T10:23:27.256Z,102176.75
2019-02-23T10:28:30.280Z,102175.67
2019-02-23T10:33:33.264Z,102143.95
2019-02-23T10:38:36.231Z,102138.72
2019-02-23T10:43:39.603Z,102142.69
2019-02-23T10:48:42.584Z,102134.13
2019-02-23T10:53:45.618Z,102116.91
2019-02-23T10:58:49.226Z,102107.73
2019-02-23T11:03:54.157Z,102129.52
2019-02-23T11:08:57.379Z,102149.55
2019-02-23T11:14:00.536Z,102154.46
2019-02-23T11:19:03.528Z,102156.60
2019-02-23T11:24:06.524Z,102150.64
2019-02-23T11:29:09.563Z,102137.80
2019-02-23T11:34:12.540Z,102120.81
2019-02-23T11:39:15.690Z,102107.82
2019-02-23T11:44:18.668Z,102104.56
2019-02-23T11:49:21.734Z,102102.53
2019-02-23T11:54:24.738Z,102089.24
2019-02-23T11:59:27.731Z,102074.75
2019-02-23T12:04:30.733Z,102066.19
2019-02-23T12:09:34.183Z,102065.44
2019-02-23T12:14:37.149Z,102043.85
2019-02-23T12:19:40.495Z,102038.42
2019-02-23T12:24:43.550Z,102017.06
2019-02-23T12:29:46.526Z,102008.64
2019-02-23T12:34:49.586Z,102001.34
2019-02-23T12:39:52.647Z,102003.19
2019-02-23T12:44:55.692Z,102000.14
2019-02-23T12:49:58.700Z,101989.36
2019-02-23T12:55:01.727Z,101992.45
2019-02-23T13:00:06.031Z,101997.52
2019-02-23T13:05:09.095Z,101998.12
2019-02-23T13:10:12.606Z,102002.89
2019-02-23T13:15:20.970Z,102003.20
2019-02-23T13:21:14.807Z,102002.78
2019-02-23T13:27:19.512Z,102005.58
2019-02-23T13:33:42.402Z,102002.97
2019-02-23T13:39:49.257Z,101999.09
2019-02-23T13:45:56.476Z,102011.10
2019-02-23T13:51:28.876Z,102012.60
2019-02-23T13:57:24.906Z,102014.67
2019-02-23T14:03:26.562Z,102018.77
2019-02-23T14:09:33.686Z,102013.99
2019-02-23T14:15:21.471Z,102019.79
2019-02-23T14:21:25.365Z,102017.95
2019-02-23T14:27:38.451Z,102013.66
2019-02-23T14:33:45.301Z,102008.73
2019-02-23T14:39:28.337Z,102007.69
2019-02-23T14:45:19.474Z,102003.60
2019-02-23T14:50:55.050Z,101997.82
2019-02-23T14:56:30.311Z,101992.42
2019-02-23T15:02:06.182Z,101987.64
2019-02-23T15:07:58.878Z,101984.47
2019-02-23T15:13:47.801Z,101977.22
2019-02-23T15:20:05.803Z,101967.09
2019-02-23T15:25:51.935Z,101970.34
2019-02-23T15:31:30.452Z,101974.30
2019-02-23T15:37:20.218Z,101995.95
2019-02-23T15:43:27.222Z,101997.91
2019-02-23T15:49:30.126Z,101991.28
2019-02-23T15:54:33.369Z,101993.42
2019-02-23T15:59:36.415Z,102002.96
2019-02-23T16:04:39.469Z,102006.78
2019-02-23T16:09:42.534Z,102013.77
2019-02-23T16:14:45.640Z,102025.55
2019-02-23T16:19:48.628Z,102029.72
2019-02-23T16:24:51.738Z,102019.11
2019-02-23T16:29:54.879Z,102004.66
2019-02-23T16:34:58.122Z,101986.84
2019-02-23T16:40:01.302Z,101983.61
2019-02-23T16:45:05.315Z,101957.23
2019-02-23T16:50:08.337Z,101929.77
2019-02-23T16:55:11.453Z,101947.63
2019-02-23T17:00:14.631Z,101978.34
2019-02-23T17:05:17.617Z,101982.22
2019-02-23T17:10:20.850Z,101974.51
2019-02-23T17:15:24.056Z,101960.23
2019-02-23T17:20:27.057Z,101974.77
2019-02-23T17:25:30.021Z,101988.30
2019-02-23T17:30:33.164Z,101994.06
2019-02-23T17:35:36.145Z,101992.39
2019-02-23T17:40:39.125Z,101975.81
2019-02-23T17:45:42.548Z,101963.05
2019-02-23T17:50:45.514Z,101947.66
2019-02-23T17:55:48.651Z,101931.72
2019-02-23T18:00:51.778Z,101936.53
2019-02-23T18:05:54.792Z,101936.64
2019-02-23T18:10:57.846Z,101913.63
2019-02-23T18:16:00.931Z,101907.27
2019-02-23T18:21:03.982Z,101905.64
2019-02-23T18:26:07.070Z,101918.23
2019-02-23T18:31:10.038Z,101915.67
2019-02-23T18:36:13.010Z,101911.27
2019-02-23T18:41:15.970Z,101910.53
2019-02-23T18:46:19.006Z,101918.70
2019-02-23T18:51:21.996Z,101911.92
2019-02-23T18:56:29.703Z,101911.77
2019-02-23T19:01:30.033Z,101907.55
2019-02-23T19:06:33.306Z,101885.82
2019-02-23T19:11:36.451Z,101862.03
2019-02-23T19:16:39.435Z,101865.52
2019-02-23T19:21:42.421Z,101856.49
2019-02-23T19:26:45.508Z,101858.83
2019-02-23T19:31:48.675Z,101855.00
2019-02-23T19:36:52.133Z,101856.32
2019-02-23T19:41:55.545Z,101853.32
2019-02-23T19:47:10.244Z,101873.66
2019-02-23T19:52:17.736Z,101889.16
2019-02-23T19:57:20.722Z,101868.83
2019-02-23T20:02:23.687Z,101863.93
2019-02-23T20:07:26.721Z,101862.46
2019-02-23T20:12:29.873Z,101865.86
2019-02-23T20:17:32.909Z,101871.92
2019-02-23T20:22:35.888Z,101870.12
2019-02-23T20:27:39.006Z,101879.66
2019-02-23T20:32:41.989Z,101879.59
2019-02-23T20:37:44.897Z,101889.06
2019-02-23T20:42:48.342Z,101883.97
2019-02-23T20:47:51.368Z,101886.38
2019-02-23T20:52:54.430Z,101871.96
2019-02-23T20:57:57.519Z,101859.07
2019-02-23T21:03:00.493Z,101857.06
2019-02-23T21:08:03.811Z,101878.78
2019-02-23T21:13:06.852Z,101891.19
2019-02-23T21:18:09.862Z,101883.05
2019-02-23T21:23:12.862Z,101889.05
2019-02-23T21:28:15.957Z,101906.02
2019-02-23T21:33:19.395Z,101892.90
2019-02-23T21:38:22.548Z,101876.83
2019-02-23T21:43:25.658Z,101874.40
2019-02-23T21:48:28.686Z,101885.09
2019-02-23T21:53:32.990Z,101886.41
2019-02-23T21:58:36.042Z,101889.15
2019-02-23T22:03:39.128Z,101894.72
2019-02-23T22:08:42.173Z,101885.94
2019-02-23T22:13:45.229Z,101887.94
2019-02-23T22:18:48.369Z,101893.45
2019-02-23T22:23:51.691Z,101886.32
2019-02-23T22:28:54.782Z,101891.20
2019-02-23T22:33:57.857Z,101900.30
2019-02-23T22:39:00.836Z,101894.56
2019-02-23T22:44:04.842Z,101900.63
2019-02-23T22:49:07.864Z,101883.55
2019-02-23T22:54:10.932Z,101870.97
2019-02-23T22:59:13.994Z,101884.27
2019-02-23T23:04:17.087Z,101868.27
2019-02-23T23:09:20.692Z,101858.98
2019-02-23T23:14:24.103Z,101838.48
2019-02-23T23:19:27.160Z,101834.80
2019-02-23T23:24:30.188Z,101838.07
2019-02-23T23:29:33.205Z,101829.55
2019-02-23T23:34:36.285Z,101821.75
2019-02-23T23:39:39.275Z,101824.96
2019-02-23T23:44:42.254Z,101825.58
2019-02-23T23:49:45.332Z,101814.66
2019-02-23T23:54:48.339Z,101809.70
2019-02-23T23:59:51.330Z,101807.19
